sensor_id;sensor_type;location;lat;lon;timestamp;P1;durP1;ratioP1;P2;durP2;ratioP2
21426;SDS011;10874;49.452;11.050;2023-05-15T00:00:14;6.30;;;5.30;;
21426;SDS011;10874;49.452;11.050;2023-05-15T00:02:43;6.50;;;5.50;;
21426;SDS011;10874;49.452;11.050;2023-05-15T00:05:10;5.90;;;5.30;;
21426;SDS011;10874;49.452;11.050;2023-05-15T00:07:39;5.33;;;4.87;;
21426;SDS011;10874;49.452;11.050;2023-05-15T00:10:07;5.87;;;5.37;;
21426;SDS011;10874;49.452;11.050;2023-05-15T00:12:34;6.03;;;5.53;;
21426;SDS011;10874;49.452;11.050;2023-05-15T00:15:01;6.33;;;5.70;;
21426;SDS011;10874;49.452;11.050;2023-05-15T00:17:27;5.63;;;5.13;;
21426;SDS011;10874;49.452;11.050;2023-05-15T00:19:54;5.67;;;5.17;;
21426;SDS011;10874;49.452;11.050;2023-05-15T00:22:23;6.17;;;5.57;;
21426;SDS011;10874;49.452;11.050;2023-05-15T00:24:50;6.20;;;5.60;;
21426;SDS011;10874;49.452;11.050;2023-05-15T00:27:17;6.60;;;6.00;;
21426;SDS011;10874;49.452;11.050;2023-05-15T00:29:43;7.60;;;6.80;;
21426;SDS011;10874;49.452;11.050;2023-05-15T00:32:11;6.87;;;6.27;;
21426;SDS011;10874;49.452;11.050;2023-05-15T00:34:38;7.10;;;6.50;;
21426;SDS011;10874;49.452;11.050;2023-05-15T00:37:05;7.10;;;6.17;;
21426;SDS011;10874;49.452;11.050;2023-05-15T00:39:34;6.73;;;6.13;;
21426;SDS011;10874;49.452;11.050;2023-05-15T00:42:02;6.87;;;6.27;;
21426;SDS011;10874;49.452;11.050;2023-05-15T00:44:29;7.27;;;6.53;;
21426;SDS011;10874;49.452;11.050;2023-05-15T00:46:56;8.07;;;7.20;;
21426;SDS011;10874;49.452;11.050;2023-05-15T00:49:24;7.47;;;6.77;;
21426;SDS011;10874;49.452;11.050;2023-05-15T00:51:53;7.73;;;6.80;;
21426;SDS011;10874;49.452;11.050;2023-05-15T00:54:19;7.97;;;7.27;;
21426;SDS011;10874;49.452;11.050;2023-05-15T00:56:46;6.67;;;6.07;;
21426;SDS011;10874;49.452;11.050;2023-05-15T00:59:15;7.10;;;6.30;;
21426;SDS011;10874;49.452;11.050;2023-05-15T01:01:42;6.90;;;5.90;;
21426;SDS011;10874;49.452;11.050;2023-05-15T01:04:10;6.67;;;5.90;;
21426;SDS011;10874;49.452;11.050;2023-05-15T01:06:37;5.80;;;5.27;;
21426;SDS011;10874;49.452;11.050;2023-05-15T01:09:04;6.30;;;5.77;;
21426;SDS011;10874;49.452;11.050;2023-05-15T01:11:32;6.83;;;5.30;;
21426;SDS011;10874;49.452;11.050;2023-05-15T01:14:03;6.60;;;6.00;;
21426;SDS011;10874;49.452;11.050;2023-05-15T01:16:31;5.80;;;5.30;;
21426;SDS011;10874;49.452;11.050;2023-05-15T01:18:57;6.30;;;5.80;;
21426;SDS011;10874;49.452;11.050;2023-05-15T01:29:07;6.40;;;5.80;;
21426;SDS011;10874;49.452;11.050;2023-05-15T01:31:35;6.57;;;5.97;;
21426;SDS011;10874;49.452;11.050;2023-05-15T01:34:06;5.87;;;5.37;;
21426;SDS011;10874;49.452;11.050;2023-05-15T01:36:38;6.07;;;5.57;;
21426;SDS011;10874;49.452;11.050;2023-05-15T01:39:08;6.00;;;5.47;;
21426;SDS011;10874;49.452;11.050;2023-05-15T01:44:21;6.70;;;6.10;;
21426;SDS011;10874;49.452;11.050;2023-05-15T01:46:50;6.70;;;6.10;;
21426;SDS011;10874;49.452;11.050;2023-05-15T01:49:17;7.47;;;6.37;;
21426;SDS011;10874;49.452;11.050;2023-05-15T01:51:46;7.20;;;6.50;;
21426;SDS011;10874;49.452;11.050;2023-05-15T01:54:13;6.30;;;5.80;;
21426;SDS011;10874;49.452;11.050;2023-05-15T01:56:41;6.97;;;6.27;;
21426;SDS011;10874;49.452;11.050;2023-05-15T01:59:10;6.80;;;6.10;;
21426;SDS011;10874;49.452;11.050;2023-05-15T02:01:38;7.03;;;6.37;;
21426;SDS011;10874;49.452;11.050;2023-05-15T02:04:05;7.00;;;6.27;;
21426;SDS011;10874;49.452;11.050;2023-05-15T02:06:32;7.07;;;6.43;;
21426;SDS011;10874;49.452;11.050;2023-05-15T02:09:00;6.97;;;6.27;;
21426;SDS011;10874;49.452;11.050;2023-05-15T02:11:29;7.83;;;6.60;;
21426;SDS011;10874;49.452;11.050;2023-05-15T02:13:56;7.17;;;6.47;;
21426;SDS011;10874;49.452;11.050;2023-05-15T02:16:23;6.80;;;6.20;;
21426;SDS011;10874;49.452;11.050;2023-05-15T02:18:49;7.53;;;6.77;;
21426;SDS011;10874;49.452;11.050;2023-05-15T02:21:18;7.33;;;6.63;;
21426;SDS011;10874;49.452;11.050;2023-05-15T02:23:45;7.00;;;6.30;;
21426;SDS011;10874;49.452;11.050;2023-05-15T02:26:19;7.03;;;6.43;;
21426;SDS011;10874;49.452;11.050;2023-05-15T02:31:39;7.17;;;6.53;;
21426;SDS011;10874;49.452;11.050;2023-05-15T02:34:25;6.60;;;6.00;;
21426;SDS011;10874;49.452;11.050;2023-05-15T02:36:52;7.60;;;6.90;;
21426;SDS011;10874;49.452;11.050;2023-05-15T02:39:20;7.67;;;6.97;;
21426;SDS011;10874;49.452;11.050;2023-05-15T02:41:50;8.00;;;7.07;;
21426;SDS011;10874;49.452;11.050;2023-05-15T02:44:18;8.10;;;6.93;;
21426;SDS011;10874;49.452;11.050;2023-05-15T02:46:46;7.40;;;6.60;;
21426;SDS011;10874;49.452;11.050;2023-05-15T02:49:13;7.23;;;6.53;;
21426;SDS011;10874;49.452;11.050;2023-05-15T02:51:40;7.13;;;6.43;;
21426;SDS011;10874;49.452;11.050;2023-05-15T02:54:07;6.97;;;6.37;;
21426;SDS011;10874;49.452;11.050;2023-05-15T02:56:35;8.17;;;7.13;;
21426;SDS011;10874;49.452;11.050;2023-05-15T02:59:01;7.40;;;6.70;;
21426;SDS011;10874;49.452;11.050;2023-05-15T03:01:28;7.63;;;6.93;;
21426;SDS011;10874;49.452;11.050;2023-05-15T03:03:55;7.57;;;6.87;;
21426;SDS011;10874;49.452;11.050;2023-05-15T03:06:22;7.27;;;6.57;;
21426;SDS011;10874;49.452;11.050;2023-05-15T03:08:48;6.80;;;6.20;;
21426;SDS011;10874;49.452;11.050;2023-05-15T03:11:15;7.50;;;6.77;;
21426;SDS011;10874;49.452;11.050;2023-05-15T03:13:44;6.97;;;6.37;;
21426;SDS011;10874;49.452;11.050;2023-05-15T03:16:11;7.60;;;6.40;;
21426;SDS011;10874;49.452;11.050;2023-05-15T03:18:37;6.90;;;6.23;;
21426;SDS011;10874;49.452;11.050;2023-05-15T03:21:04;6.80;;;6.10;;
21426;SDS011;10874;49.452;11.050;2023-05-15T03:23:31;6.67;;;6.07;;
21426;SDS011;10874;49.452;11.050;2023-05-15T03:25:57;8.33;;;6.77;;
21426;SDS011;10874;49.452;11.050;2023-05-15T03:28:24;7.47;;;6.40;;
21426;SDS011;10874;49.452;11.050;2023-05-15T03:30:51;6.97;;;6.27;;
21426;SDS011;10874;49.452;11.050;2023-05-15T03:33:18;7.03;;;6.33;;
21426;SDS011;10874;49.452;11.050;2023-05-15T03:35:44;7.83;;;7.10;;
21426;SDS011;10874;49.452;11.050;2023-05-15T03:38:11;6.80;;;6.20;;
21426;SDS011;10874;49.452;11.050;2023-05-15T03:40:38;6.70;;;6.10;;
21426;SDS011;10874;49.452;11.050;2023-05-15T03:43:05;7.57;;;6.87;;
21426;SDS011;10874;49.452;11.050;2023-05-15T03:45:32;6.30;;;5.70;;
21426;SDS011;10874;49.452;11.050;2023-05-15T03:48:00;8.73;;;6.77;;
21426;SDS011;10874;49.452;11.050;2023-05-15T03:50:27;7.27;;;6.57;;
21426;SDS011;10874;49.452;11.050;2023-05-15T03:52:53;7.27;;;6.67;;
21426;SDS011;10874;49.452;11.050;2023-05-15T03:55:20;7.23;;;5.77;;
21426;SDS011;10874;49.452;11.050;2023-05-15T03:57:47;7.00;;;6.30;;
21426;SDS011;10874;49.452;11.050;2023-05-15T04:00:14;6.80;;;6.20;;
21426;SDS011;10874;49.452;11.050;2023-05-15T04:02:43;7.50;;;6.80;;
21426;SDS011;10874;49.452;11.050;2023-05-15T04:05:10;7.90;;;6.63;;
21426;SDS011;10874;49.452;11.050;2023-05-15T04:07:36;7.67;;;6.83;;
21426;SDS011;10874;49.452;11.050;2023-05-15T04:10:03;7.13;;;6.23;;
21426;SDS011;10874;49.452;11.050;2023-05-15T04:12:31;6.60;;;6.00;;
21426;SDS011;10874;49.452;11.050;2023-05-15T04:14:58;6.70;;;6.00;;
21426;SDS011;10874;49.452;11.050;2023-05-15T04:17:38;7.20;;;6.27;;
21426;SDS011;10874;49.452;11.050;2023-05-15T04:20:05;7.17;;;6.03;;
21426;SDS011;10874;49.452;11.050;2023-05-15T04:22:32;7.17;;;6.47;;
21426;SDS011;10874;49.452;11.050;2023-05-15T04:24:59;7.00;;;6.40;;
21426;SDS011;10874;49.452;11.050;2023-05-15T04:27:26;7.23;;;6.63;;
21426;SDS011;10874;49.452;11.050;2023-05-15T04:29:53;7.97;;;7.17;;
21426;SDS011;10874;49.452;11.050;2023-05-15T04:32:19;7.40;;;6.70;;
21426;SDS011;10874;49.452;11.050;2023-05-15T04:34:47;7.33;;;6.67;;
21426;SDS011;10874;49.452;11.050;2023-05-15T04:37:14;7.43;;;6.67;;
21426;SDS011;10874;49.452;11.050;2023-05-15T04:39:41;7.83;;;7.13;;
21426;SDS011;10874;49.452;11.050;2023-05-15T04:42:07;7.07;;;6.37;;
21426;SDS011;10874;49.452;11.050;2023-05-15T04:44:34;6.67;;;6.17;;
21426;SDS011;10874;49.452;11.050;2023-05-15T04:47:01;8.13;;;6.47;;
21426;SDS011;10874;49.452;11.050;2023-05-15T04:49:27;6.50;;;5.90;;
21426;SDS011;10874;49.452;11.050;2023-05-15T04:51:54;6.40;;;5.80;;
21426;SDS011;10874;49.452;11.050;2023-05-15T04:54:21;7.37;;;6.63;;
21426;SDS011;10874;49.452;11.050;2023-05-15T04:56:47;6.30;;;5.73;;
21426;SDS011;10874;49.452;11.050;2023-05-15T04:59:14;7.10;;;6.00;;
21426;SDS011;10874;49.452;11.050;2023-05-15T05:01:42;5.87;;;5.33;;
21426;SDS011;10874;49.452;11.050;2023-05-15T05:04:08;7.03;;;6.40;;
21426;SDS011;10874;49.452;11.050;2023-05-15T05:06:35;6.63;;;5.90;;
21426;SDS011;10874;49.452;11.050;2023-05-15T05:09:02;6.50;;;5.90;;
21426;SDS011;10874;49.452;11.050;2023-05-15T05:11:29;6.50;;;5.90;;
21426;SDS011;10874;49.452;11.050;2023-05-15T05:13:55;6.40;;;5.90;;
21426;SDS011;10874;49.452;11.050;2023-05-15T05:16:22;5.87;;;5.37;;
21426;SDS011;10874;49.452;11.050;2023-05-15T05:18:49;6.90;;;5.70;;
21426;SDS011;10874;49.452;11.050;2023-05-15T05:21:16;6.10;;;5.57;;
21426;SDS011;10874;49.452;11.050;2023-05-15T05:23:43;6.87;;;6.20;;
21426;SDS011;10874;49.452;11.050;2023-05-15T05:26:09;6.63;;;5.40;;
21426;SDS011;10874;49.452;11.050;2023-05-15T05:28:36;6.13;;;5.53;;
21426;SDS011;10874;49.452;11.050;2023-05-15T05:31:03;6.40;;;5.83;;
21426;SDS011;10874;49.452;11.050;2023-05-15T05:33:30;6.67;;;5.80;;
21426;SDS011;10874;49.452;11.050;2023-05-15T05:35:56;7.27;;;6.13;;
21426;SDS011;10874;49.452;11.050;2023-05-15T05:38:23;10.47;;;6.60;;
21426;SDS011;10874;49.452;11.050;2023-05-15T05:40:52;10.97;;;7.00;;
21426;SDS011;10874;49.452;11.050;2023-05-15T05:43:18;7.60;;;6.93;;
21426;SDS011;10874;49.452;11.050;2023-05-15T05:45:46;7.80;;;6.63;;
21426;SDS011;10874;49.452;11.050;2023-05-15T05:48:13;7.90;;;7.20;;
21426;SDS011;10874;49.452;11.050;2023-05-15T05:50:39;8.23;;;7.43;;
21426;SDS011;10874;49.452;11.050;2023-05-15T05:53:06;7.50;;;6.80;;
21426;SDS011;10874;49.452;11.050;2023-05-15T05:55:33;7.53;;;6.70;;
21426;SDS011;10874;49.452;11.050;2023-05-15T05:57:59;8.30;;;7.50;;
21426;SDS011;10874;49.452;11.050;2023-05-15T06:00:27;8.13;;;7.43;;
21426;SDS011;10874;49.452;11.050;2023-05-15T06:02:56;7.80;;;7.10;;
21426;SDS011;10874;49.452;11.050;2023-05-15T06:05:24;8.03;;;7.23;;
21426;SDS011;10874;49.452;11.050;2023-05-15T06:07:51;8.57;;;7.43;;
21426;SDS011;10874;49.452;11.050;2023-05-15T06:10:18;8.23;;;7.43;;
21426;SDS011;10874;49.452;11.050;2023-05-15T06:12:45;8.73;;;7.93;;
21426;SDS011;10874;49.452;11.050;2023-05-15T06:15:12;8.03;;;7.23;;
21426;SDS011;10874;49.452;11.050;2023-05-15T06:17:39;7.70;;;7.00;;
21426;SDS011;10874;49.452;11.050;2023-05-15T06:20:06;7.70;;;6.90;;
21426;SDS011;10874;49.452;11.050;2023-05-15T06:22:37;8.00;;;7.30;;
21426;SDS011;10874;49.452;11.050;2023-05-15T06:25:04;8.23;;;7.53;;
21426;SDS011;10874;49.452;11.050;2023-05-15T06:27:31;8.47;;;7.67;;
21426;SDS011;10874;49.452;11.050;2023-05-15T06:29:58;8.20;;;7.50;;
21426;SDS011;10874;49.452;11.050;2023-05-15T06:32:25;8.93;;;7.53;;
21426;SDS011;10874;49.452;11.050;2023-05-15T06:34:52;7.47;;;6.87;;
21426;SDS011;10874;49.452;11.050;2023-05-15T06:37:18;8.47;;;7.67;;
21426;SDS011;10874;49.452;11.050;2023-05-15T06:39:45;7.20;;;6.60;;
21426;SDS011;10874;49.452;11.050;2023-05-15T06:42:12;7.13;;;6.43;;
21426;SDS011;10874;49.452;11.050;2023-05-15T06:44:40;6.90;;;5.90;;
21426;SDS011;10874;49.452;11.050;2023-05-15T06:47:07;7.40;;;6.70;;
21426;SDS011;10874;49.452;11.050;2023-05-15T06:49:33;7.57;;;6.30;;
21426;SDS011;10874;49.452;11.050;2023-05-15T06:52:00;5.87;;;5.37;;
21426;SDS011;10874;49.452;11.050;2023-05-15T06:54:27;7.07;;;5.90;;
21426;SDS011;10874;49.452;11.050;2023-05-15T06:56:54;8.00;;;5.83;;
21426;SDS011;10874;49.452;11.050;2023-05-15T06:59:20;6.10;;;5.60;;
21426;SDS011;10874;49.452;11.050;2023-05-15T07:01:47;6.10;;;5.60;;
21426;SDS011;10874;49.452;11.050;2023-05-15T07:04:14;6.43;;;5.83;;
21426;SDS011;10874;49.452;11.050;2023-05-15T07:06:41;6.80;;;5.27;;
21426;SDS011;10874;49.452;11.050;2023-05-15T07:09:08;6.47;;;5.87;;
21426;SDS011;10874;49.452;11.050;2023-05-15T07:11:35;6.47;;;5.77;;
21426;SDS011;10874;49.452;11.050;2023-05-15T07:14:05;6.30;;;5.70;;
21426;SDS011;10874;49.452;11.050;2023-05-15T07:16:31;6.60;;;5.80;;
21426;SDS011;10874;49.452;11.050;2023-05-15T07:18:59;6.77;;;5.50;;
21426;SDS011;10874;49.452;11.050;2023-05-15T07:21:26;6.57;;;5.63;;
21426;SDS011;10874;49.452;11.050;2023-05-15T07:23:52;6.70;;;6.10;;
21426;SDS011;10874;49.452;11.050;2023-05-15T07:26:19;6.37;;;5.73;;
21426;SDS011;10874;49.452;11.050;2023-05-15T07:29:00;6.03;;;5.57;;
21426;SDS011;10874;49.452;11.050;2023-05-15T07:31:27;5.97;;;5.50;;
21426;SDS011;10874;49.452;11.050;2023-05-15T07:33:53;5.63;;;5.13;;
21426;SDS011;10874;49.452;11.050;2023-05-15T07:36:20;5.83;;;5.27;;
21426;SDS011;10874;49.452;11.050;2023-05-15T07:38:47;5.33;;;4.83;;
21426;SDS011;10874;49.452;11.050;2023-05-15T07:41:13;5.53;;;4.87;;
21426;SDS011;10874;49.452;11.050;2023-05-15T07:43:40;8.23;;;5.40;;
21426;SDS011;10874;49.452;11.050;2023-05-15T07:46:07;5.27;;;4.87;;
21426;SDS011;10874;49.452;11.050;2023-05-15T07:48:33;10.07;;;5.20;;
21426;SDS011;10874;49.452;11.050;2023-05-15T07:51:00;6.03;;;5.53;;
21426;SDS011;10874;49.452;11.050;2023-05-15T07:53:27;6.20;;;5.03;;
21426;SDS011;10874;49.452;11.050;2023-05-15T07:55:54;5.70;;;5.20;;
21426;SDS011;10874;49.452;11.050;2023-05-15T07:58:20;6.00;;;5.40;;
21426;SDS011;10874;49.452;11.050;2023-05-15T08:00:48;5.70;;;5.30;;
21426;SDS011;10874;49.452;11.050;2023-05-15T08:03:15;5.77;;;5.27;;
21426;SDS011;10874;49.452;11.050;2023-05-15T08:05:42;7.03;;;5.60;;
21426;SDS011;10874;49.452;11.050;2023-05-15T08:08:09;6.20;;;5.53;;
21426;SDS011;10874;49.452;11.050;2023-05-15T08:10:36;5.80;;;4.90;;
21426;SDS011;10874;49.452;11.050;2023-05-15T08:13:02;5.30;;;4.80;;
21426;SDS011;10874;49.452;11.050;2023-05-15T08:15:29;5.13;;;4.73;;
21426;SDS011;10874;49.452;11.050;2023-05-15T08:17:56;5.40;;;4.90;;
21426;SDS011;10874;49.452;11.050;2023-05-15T08:20:23;5.70;;;5.10;;
21426;SDS011;10874;49.452;11.050;2023-05-15T08:22:49;5.37;;;4.97;;
21426;SDS011;10874;49.452;11.050;2023-05-15T08:25:16;5.30;;;4.80;;
21426;SDS011;10874;49.452;11.050;2023-05-15T08:27:43;5.37;;;4.87;;
21426;SDS011;10874;49.452;11.050;2023-05-15T08:30:10;5.30;;;4.80;;
21426;SDS011;10874;49.452;11.050;2023-05-15T08:32:37;5.03;;;4.60;;
21426;SDS011;10874;49.452;11.050;2023-05-15T08:35:04;5.03;;;4.53;;
21426;SDS011;10874;49.452;11.050;2023-05-15T08:37:31;4.83;;;4.33;;
21426;SDS011;10874;49.452;11.050;2023-05-15T08:39:59;4.43;;;4.10;;
21426;SDS011;10874;49.452;11.050;2023-05-15T08:42:27;6.13;;;5.53;;
21426;SDS011;10874;49.452;11.050;2023-05-15T08:44:59;5.13;;;4.67;;
21426;SDS011;10874;49.452;11.050;2023-05-15T08:47:28;5.57;;;5.07;;
21426;SDS011;10874;49.452;11.050;2023-05-15T08:52:34;5.23;;;4.73;;
21426;SDS011;10874;49.452;11.050;2023-05-15T08:55:00;4.70;;;4.27;;
21426;SDS011;10874;49.452;11.050;2023-05-15T08:57:27;4.90;;;4.50;;
21426;SDS011;10874;49.452;11.050;2023-05-15T08:59:55;4.97;;;4.57;;
21426;SDS011;10874;49.452;11.050;2023-05-15T09:02:22;4.80;;;4.40;;
21426;SDS011;10874;49.452;11.050;2023-05-15T09:04:50;4.87;;;4.40;;
21426;SDS011;10874;49.452;11.050;2023-05-15T09:07:18;4.93;;;4.43;;
21426;SDS011;10874;49.452;11.050;2023-05-15T09:09:45;4.53;;;4.13;;
21426;SDS011;10874;49.452;11.050;2023-05-15T09:12:13;4.70;;;4.30;;
21426;SDS011;10874;49.452;11.050;2023-05-15T09:14:41;4.60;;;4.20;;
21426;SDS011;10874;49.452;11.050;2023-05-15T09:17:08;5.30;;;4.33;;
21426;SDS011;10874;49.452;11.050;2023-05-15T09:19:37;4.50;;;4.20;;
21426;SDS011;10874;49.452;11.050;2023-05-15T09:22:19;5.03;;;4.60;;
21426;SDS011;10874;49.452;11.050;2023-05-15T09:24:51;4.57;;;4.17;;
21426;SDS011;10874;49.452;11.050;2023-05-15T09:27:19;4.03;;;3.63;;
21426;SDS011;10874;49.452;11.050;2023-05-15T09:29:45;4.27;;;3.97;;
21426;SDS011;10874;49.452;11.050;2023-05-15T09:32:13;4.73;;;4.30;;
21426;SDS011;10874;49.452;11.050;2023-05-15T09:34:41;5.33;;;4.83;;
21426;SDS011;10874;49.452;11.050;2023-05-15T09:37:11;5.00;;;4.47;;
21426;SDS011;10874;49.452;11.050;2023-05-15T09:39:39;4.30;;;4.00;;
21426;SDS011;10874;49.452;11.050;2023-05-15T09:42:07;4.37;;;3.97;;
21426;SDS011;10874;49.452;11.050;2023-05-15T09:44:34;4.17;;;3.87;;
21426;SDS011;10874;49.452;11.050;2023-05-15T09:47:01;4.17;;;3.87;;
21426;SDS011;10874;49.452;11.050;2023-05-15T09:49:30;4.10;;;3.80;;
21426;SDS011;10874;49.452;11.050;2023-05-15T09:51:59;4.70;;;4.30;;
21426;SDS011;10874;49.452;11.050;2023-05-15T09:54:26;4.43;;;4.10;;
21426;SDS011;10874;49.452;11.050;2023-05-15T09:56:53;5.97;;;4.50;;
21426;SDS011;10874;49.452;11.050;2023-05-15T09:59:20;4.60;;;4.27;;
21426;SDS011;10874;49.452;11.050;2023-05-15T10:01:50;4.83;;;4.43;;
21426;SDS011;10874;49.452;11.050;2023-05-15T10:04:17;5.03;;;4.63;;
21426;SDS011;10874;49.452;11.050;2023-05-15T10:06:47;5.03;;;4.53;;
21426;SDS011;10874;49.452;11.050;2023-05-15T10:09:14;3.87;;;3.47;;
21426;SDS011;10874;49.452;11.050;2023-05-15T10:11:41;3.10;;;2.60;;
21426;SDS011;10874;49.452;11.050;2023-05-15T10:14:09;2.70;;;2.50;;
21426;SDS011;10874;49.452;11.050;2023-05-15T10:16:37;2.30;;;2.10;;
21426;SDS011;10874;49.452;11.050;2023-05-15T10:19:10;2.10;;;2.00;;
21426;SDS011;10874;49.452;11.050;2023-05-15T10:21:38;2.40;;;1.77;;
21426;SDS011;10874;49.452;11.050;2023-05-15T10:24:05;2.60;;;1.40;;
21426;SDS011;10874;49.452;11.050;2023-05-15T10:29:05;2.03;;;1.80;;
21426;SDS011;10874;49.452;11.050;2023-05-15T10:31:32;2.37;;;1.97;;
21426;SDS011;10874;49.452;11.050;2023-05-15T10:34:00;2.10;;;2.00;;
21426;SDS011;10874;49.452;11.050;2023-05-15T10:36:28;1.90;;;1.80;;
21426;SDS011;10874;49.452;11.050;2023-05-15T10:38:55;3.60;;;2.40;;
21426;SDS011;10874;49.452;11.050;2023-05-15T10:41:22;3.03;;;2.70;;
21426;SDS011;10874;49.452;11.050;2023-05-15T10:43:49;3.87;;;3.20;;
21426;SDS011;10874;49.452;11.050;2023-05-15T10:46:17;3.77;;;3.20;;
21426;SDS011;10874;49.452;11.050;2023-05-15T10:48:44;4.27;;;3.87;;
21426;SDS011;10874;49.452;11.050;2023-05-15T10:51:14;4.23;;;3.83;;
21426;SDS011;10874;49.452;11.050;2023-05-15T10:53:42;3.97;;;3.63;;
21426;SDS011;10874;49.452;11.050;2023-05-15T10:56:13;3.97;;;3.43;;
21426;SDS011;10874;49.452;11.050;2023-05-15T10:58:44;3.70;;;3.40;;
21426;SDS011;10874;49.452;11.050;2023-05-15T11:01:25;4.53;;;3.50;;
21426;SDS011;10874;49.452;11.050;2023-05-15T11:04:06;3.80;;;3.33;;
21426;SDS011;10874;49.452;11.050;2023-05-15T11:06:34;3.77;;;3.43;;
21426;SDS011;10874;49.452;11.050;2023-05-15T11:14:25;3.50;;;3.20;;
21426;SDS011;10874;49.452;11.050;2023-05-15T11:19:20;4.67;;;3.53;;
21426;SDS011;10874;49.452;11.050;2023-05-15T11:21:47;3.13;;;2.93;;
21426;SDS011;10874;49.452;11.050;2023-05-15T11:24:19;3.63;;;3.33;;
21426;SDS011;10874;49.452;11.050;2023-05-15T11:26:45;4.00;;;3.70;;
21426;SDS011;10874;49.452;11.050;2023-05-15T11:29:17;4.43;;;4.03;;
21426;SDS011;10874;49.452;11.050;2023-05-15T11:31:44;4.67;;;4.30;;
21426;SDS011;10874;49.452;11.050;2023-05-15T11:34:11;5.10;;;4.27;;
21426;SDS011;10874;49.452;11.050;2023-05-15T11:36:38;5.27;;;4.47;;
21426;SDS011;10874;49.452;11.050;2023-05-15T11:39:09;3.90;;;3.60;;
21426;SDS011;10874;49.452;11.050;2023-05-15T11:41:35;4.73;;;4.33;;
21426;SDS011;10874;49.452;11.050;2023-05-15T11:44:03;5.43;;;4.37;;
21426;SDS011;10874;49.452;11.050;2023-05-15T11:46:30;4.70;;;4.17;;
21426;SDS011;10874;49.452;11.050;2023-05-15T11:48:58;4.10;;;3.70;;
21426;SDS011;10874;49.452;11.050;2023-05-15T11:51:26;4.63;;;4.10;;
21426;SDS011;10874;49.452;11.050;2023-05-15T11:53:53;4.50;;;4.10;;
21426;SDS011;10874;49.452;11.050;2023-05-15T11:56:21;5.07;;;4.67;;
21426;SDS011;10874;49.452;11.050;2023-05-15T11:58:53;4.27;;;3.93;;
21426;SDS011;10874;49.452;11.050;2023-05-15T12:01:21;4.43;;;4.13;;
21426;SDS011;10874;49.452;11.050;2023-05-15T12:03:48;5.67;;;3.77;;
21426;SDS011;10874;49.452;11.050;2023-05-15T12:06:15;4.37;;;4.00;;
21426;SDS011;10874;49.452;11.050;2023-05-15T12:08:42;3.53;;;3.33;;
21426;SDS011;10874;49.452;11.050;2023-05-15T12:11:09;3.63;;;3.40;;
21426;SDS011;10874;49.452;11.050;2023-05-15T12:13:36;4.03;;;3.60;;
21426;SDS011;10874;49.452;11.050;2023-05-15T12:16:03;4.00;;;3.70;;
21426;SDS011;10874;49.452;11.050;2023-05-15T12:18:30;3.60;;;3.30;;
21426;SDS011;10874;49.452;11.050;2023-05-15T12:20:58;4.13;;;3.73;;
21426;SDS011;10874;49.452;11.050;2023-05-15T12:23:25;4.77;;;3.80;;
21426;SDS011;10874;49.452;11.050;2023-05-15T12:25:56;3.90;;;3.60;;
21426;SDS011;10874;49.452;11.050;2023-05-15T12:28:24;4.33;;;3.70;;
21426;SDS011;10874;49.452;11.050;2023-05-15T12:30:52;4.57;;;3.70;;
21426;SDS011;10874;49.452;11.050;2023-05-15T12:33:19;4.20;;;3.90;;
21426;SDS011;10874;49.452;11.050;2023-05-15T12:35:49;5.17;;;4.50;;
21426;SDS011;10874;49.452;11.050;2023-05-15T12:38:17;5.30;;;4.77;;
21426;SDS011;10874;49.452;11.050;2023-05-15T12:40:45;9.77;;;5.60;;
21426;SDS011;10874;49.452;11.050;2023-05-15T12:43:12;8.03;;;5.63;;
21426;SDS011;10874;49.452;11.050;2023-05-15T12:45:40;8.30;;;5.53;;
21426;SDS011;10874;49.452;11.050;2023-05-15T12:48:07;6.87;;;5.57;;
21426;SDS011;10874;49.452;11.050;2023-05-15T12:50:38;5.77;;;5.27;;
21426;SDS011;10874;49.452;11.050;2023-05-15T12:53:05;6.33;;;5.70;;
21426;SDS011;10874;49.452;11.050;2023-05-15T12:55:32;6.10;;;5.50;;
21426;SDS011;10874;49.452;11.050;2023-05-15T12:58:01;5.43;;;5.03;;
21426;SDS011;10874;49.452;11.050;2023-05-15T13:00:29;6.13;;;5.63;;
21426;SDS011;10874;49.452;11.050;2023-05-15T13:02:57;6.10;;;5.60;;
21426;SDS011;10874;49.452;11.050;2023-05-15T13:05:24;5.77;;;5.23;;
21426;SDS011;10874;49.452;11.050;2023-05-15T13:07:51;5.80;;;5.20;;
21426;SDS011;10874;49.452;11.050;2023-05-15T13:10:22;5.90;;;5.33;;
21426;SDS011;10874;49.452;11.050;2023-05-15T13:12:50;5.23;;;4.83;;
21426;SDS011;10874;49.452;11.050;2023-05-15T13:15:30;5.13;;;4.63;;
21426;SDS011;10874;49.452;11.050;2023-05-15T13:18:07;5.17;;;4.67;;
21426;SDS011;10874;49.452;11.050;2023-05-15T13:20:37;5.40;;;4.90;;
21426;SDS011;10874;49.452;11.050;2023-05-15T13:23:04;5.37;;;4.87;;
21426;SDS011;10874;49.452;11.050;2023-05-15T13:25:33;5.07;;;4.57;;
21426;SDS011;10874;49.452;11.050;2023-05-15T13:28:01;5.00;;;4.53;;
21426;SDS011;10874;49.452;11.050;2023-05-15T13:30:29;4.50;;;4.17;;
21426;SDS011;10874;49.452;11.050;2023-05-15T13:32:56;4.70;;;4.30;;
21426;SDS011;10874;49.452;11.050;2023-05-15T13:35:23;4.43;;;4.13;;
21426;SDS011;10874;49.452;11.050;2023-05-15T13:37:50;4.40;;;3.80;;
21426;SDS011;10874;49.452;11.050;2023-05-15T13:40:17;4.20;;;3.80;;
21426;SDS011;10874;49.452;11.050;2023-05-15T13:42:43;7.13;;;4.57;;
21426;SDS011;10874;49.452;11.050;2023-05-15T13:45:11;4.53;;;4.13;;
21426;SDS011;10874;49.452;11.050;2023-05-15T13:47:39;4.90;;;4.50;;
21426;SDS011;10874;49.452;11.050;2023-05-15T13:50:12;4.43;;;4.13;;
21426;SDS011;10874;49.452;11.050;2023-05-15T13:52:40;4.83;;;4.43;;
21426;SDS011;10874;49.452;11.050;2023-05-15T13:55:07;4.60;;;4.20;;
21426;SDS011;10874;49.452;11.050;2023-05-15T13:57:38;5.03;;;4.60;;
21426;SDS011;10874;49.452;11.050;2023-05-15T14:00:06;5.27;;;4.73;;
21426;SDS011;10874;49.452;11.050;2023-05-15T14:02:36;4.50;;;4.07;;
21426;SDS011;10874;49.452;11.050;2023-05-15T14:05:02;4.33;;;4.00;;
21426;SDS011;10874;49.452;11.050;2023-05-15T14:07:30;5.17;;;4.70;;
21426;SDS011;10874;49.452;11.050;2023-05-15T14:09:57;4.20;;;3.90;;
21426;SDS011;10874;49.452;11.050;2023-05-15T14:12:24;4.30;;;4.00;;
21426;SDS011;10874;49.452;11.050;2023-05-15T14:14:50;4.43;;;4.07;;
21426;SDS011;10874;49.452;11.050;2023-05-15T14:17:17;4.20;;;3.90;;
21426;SDS011;10874;49.452;11.050;2023-05-15T14:19:44;4.60;;;4.27;;
21426;SDS011;10874;49.452;11.050;2023-05-15T14:22:10;4.77;;;4.37;;
21426;SDS011;10874;49.452;11.050;2023-05-15T14:24:37;4.50;;;4.10;;
21426;SDS011;10874;49.452;11.050;2023-05-15T14:27:04;4.67;;;4.10;;
21426;SDS011;10874;49.452;11.050;2023-05-15T14:29:31;4.30;;;3.90;;
21426;SDS011;10874;49.452;11.050;2023-05-15T14:31:58;4.90;;;4.40;;
21426;SDS011;10874;49.452;11.050;2023-05-15T14:34:25;5.13;;;4.73;;
21426;SDS011;10874;49.452;11.050;2023-05-15T14:36:51;4.80;;;4.40;;
21426;SDS011;10874;49.452;11.050;2023-05-15T14:39:18;5.07;;;4.57;;
21426;SDS011;10874;49.452;11.050;2023-05-15T14:41:46;4.83;;;4.43;;
21426;SDS011;10874;49.452;11.050;2023-05-15T14:44:13;6.30;;;4.60;;
21426;SDS011;10874;49.452;11.050;2023-05-15T14:46:43;4.83;;;4.40;;
21426;SDS011;10874;49.452;11.050;2023-05-15T14:49:09;4.20;;;3.90;;
21426;SDS011;10874;49.452;11.050;2023-05-15T14:51:36;4.40;;;4.00;;
21426;SDS011;10874;49.452;11.050;2023-05-15T14:54:03;4.40;;;4.00;;
21426;SDS011;10874;49.452;11.050;2023-05-15T14:56:30;7.70;;;4.43;;
21426;SDS011;10874;49.452;11.050;2023-05-15T14:58:57;5.10;;;4.20;;
21426;SDS011;10874;49.452;11.050;2023-05-15T15:01:24;5.47;;;4.50;;